createdAt,value
2023-02-09T00:01:49.108Z,18.38
2023-02-09T00:04:18.811Z,16.15
2023-02-09T00:06:46.777Z,18.65
2023-02-09T00:09:15.130Z,16.52
2023-02-09T00:12:00.470Z,16.98
2023-02-09T00:14:28.851Z,16.70
2023-02-09T00:16:56.986Z,17.92
2023-02-09T00:19:26.404Z,19.50
2023-02-09T00:21:54.757Z,17.75
2023-02-09T00:24:22.901Z,19.85
2023-02-09T00:26:51.256Z,16.05
2023-02-09T00:29:22.454Z,20.60
2023-02-09T00:31:52.089Z,18.10
2023-02-09T00:34:20.702Z,17.98
2023-02-09T00:36:50.794Z,19.70
2023-02-09T00:39:18.805Z,18.70
2023-02-09T00:42:04.704Z,19.10
2023-02-09T00:44:33.120Z,17.60
2023-02-09T00:47:01.411Z,18.30
2023-02-09T00:49:29.814Z,18.23
2023-02-09T00:51:59.253Z,18.80
2023-02-09T00:54:27.312Z,17.92
2023-02-09T00:56:55.574Z,18.40
2023-02-09T00:59:23.568Z,21.30
2023-02-09T01:01:51.551Z,18.10
2023-02-09T01:04:19.608Z,17.50
2023-02-09T01:06:48.707Z,19.35
2023-02-09T01:09:20.194Z,20.42
2023-02-09T01:11:48.399Z,20.08
2023-02-09T01:14:16.888Z,20.63
2023-02-09T01:16:45.381Z,18.25
2023-02-09T01:19:14.312Z,20.38
2023-02-09T01:21:42.753Z,20.90
2023-02-09T01:24:15.169Z,17.23
2023-02-09T01:26:44.648Z,18.73
2023-02-09T01:29:14.892Z,16.75
2023-02-09T01:31:43.201Z,16.15
2023-02-09T01:34:14.393Z,18.60
2023-02-09T01:36:43.016Z,18.02
2023-02-09T01:39:14.154Z,17.33
2023-02-09T01:41:44.401Z,18.83
2023-02-09T01:44:49.994Z,18.90
2023-02-09T01:47:20.640Z,16.15
2023-02-09T01:49:52.347Z,17.17
2023-02-09T01:52:24.591Z,16.60
2023-02-09T01:54:56.868Z,17.58
2023-02-09T01:57:30.647Z,18.75
2023-02-09T02:00:03.811Z,17.95
2023-02-09T02:02:43.933Z,18.05
2023-02-09T02:05:12.621Z,18.40
2023-02-09T02:07:46.219Z,19.75
2023-02-09T02:10:14.412Z,18.52
2023-02-09T02:12:44.733Z,18.05
2023-02-09T02:15:12.875Z,19.73
2023-02-09T02:17:56.382Z,18.73
2023-02-09T02:20:54.844Z,20.48
2023-02-09T02:23:30.244Z,19.95
2023-02-09T02:26:22.067Z,20.17
2023-02-09T02:29:24.199Z,18.52
2023-02-09T02:32:10.244Z,17.55
2023-02-09T02:34:45.731Z,18.55
2023-02-09T02:37:27.552Z,19.63
2023-02-09T02:40:02.549Z,18.55
2023-02-09T02:42:50.076Z,20.63
2023-02-09T02:45:29.129Z,22.10
2023-02-09T02:48:08.083Z,21.92
2023-02-09T02:50:41.150Z,23.55
2023-02-09T02:53:13.403Z,23.08
2023-02-09T02:55:44.150Z,22.98
2023-02-09T02:58:15.903Z,21.63
2023-02-09T03:00:49.259Z,21.98
2023-02-09T03:03:22.538Z,23.67
2023-02-09T03:05:51.543Z,23.02
2023-02-09T03:08:19.655Z,22.98
2023-02-09T03:10:48.268Z,22.33
2023-02-09T03:13:30.196Z,22.42
2023-02-09T03:19:26.786Z,20.75
2023-02-09T03:22:07.428Z,20.48
2023-02-09T03:24:39.976Z,21.17
2023-02-09T03:27:16.333Z,21.02
2023-02-09T03:29:47.088Z,19.70
2023-02-09T03:32:16.289Z,19.35
2023-02-09T03:34:46.628Z,21.15
2023-02-09T03:37:14.866Z,21.33
2023-02-09T03:39:43.465Z,20.20
2023-02-09T03:42:11.724Z,19.55
2023-02-09T03:44:39.917Z,20.30
2023-02-09T03:47:10.363Z,20.73
2023-02-09T03:49:41.641Z,22.80
2023-02-09T03:52:14.787Z,23.35
2023-02-09T03:54:42.807Z,21.35
2023-02-09T03:57:11.530Z,23.83
2023-02-09T03:59:39.804Z,26.33
2023-02-09T04:02:09.519Z,24.80
2023-02-09T04:04:38.628Z,25.30
2023-02-09T04:07:07.153Z,25.27
2023-02-09T04:09:37.760Z,25.05
2023-02-09T04:12:06.245Z,22.88
2023-02-09T04:14:34.396Z,24.27
2023-02-09T04:17:02.612Z,25.50
2023-02-09T04:19:30.866Z,28.65
2023-02-09T04:21:58.990Z,25.27
2023-02-09T04:24:30.004Z,26.55
2023-02-09T04:26:59.422Z,25.70
2023-02-09T04:29:28.339Z,25.67
2023-02-09T04:31:57.141Z,24.02
2023-02-09T04:34:25.334Z,27.90
2023-02-09T04:36:53.730Z,26.55
2023-02-09T04:39:21.815Z,26.00
2023-02-09T04:41:49.982Z,26.52
2023-02-09T04:44:19.352Z,28.52
2023-02-09T04:46:47.504Z,28.63
2023-02-09T04:49:15.542Z,27.70
2023-02-09T04:51:43.950Z,27.95
2023-02-09T04:54:12.083Z,29.13
2023-02-09T04:56:40.425Z,26.90
2023-02-09T04:59:27.480Z,26.20
2023-02-09T05:01:57.084Z,28.75
2023-02-09T05:04:25.352Z,27.98
2023-02-09T05:06:53.387Z,28.10
2023-02-09T05:09:21.572Z,29.92
2023-02-09T05:11:49.591Z,29.65
2023-02-09T05:14:17.861Z,27.73
2023-02-09T05:16:45.863Z,28.50
2023-02-09T05:19:15.750Z,28.42
2023-02-09T05:21:43.894Z,26.58
2023-02-09T05:24:12.067Z,26.60
2023-02-09T05:26:40.393Z,26.48
2023-02-09T05:29:08.496Z,28.27
2023-02-09T05:31:36.737Z,25.65
2023-02-09T05:34:05.097Z,26.52
2023-02-09T05:36:34.440Z,27.80
2023-02-09T05:39:02.749Z,27.92
2023-02-09T05:41:48.291Z,27.42
2023-02-09T05:44:16.525Z,29.98
2023-02-09T05:46:44.568Z,27.42
2023-02-09T05:49:12.530Z,28.65
2023-02-09T05:51:42.296Z,27.08
2023-02-09T05:54:10.300Z,27.35
2023-02-09T05:56:38.928Z,27.55
2023-02-09T05:59:07.117Z,28.15
2023-02-09T06:01:35.133Z,25.30
2023-02-09T06:04:03.442Z,24.05
2023-02-09T06:06:31.496Z,23.73
2023-02-09T06:09:01.028Z,25.05
2023-02-09T06:11:29.048Z,25.88
2023-02-09T06:13:57.370Z,23.13
2023-02-09T06:16:25.588Z,26.00
2023-02-09T06:18:53.910Z,24.80
2023-02-09T06:21:21.961Z,24.30
2023-02-09T06:23:50.282Z,24.92
2023-02-09T06:26:20.361Z,24.70
2023-02-09T06:28:48.745Z,27.25
2023-02-09T06:31:17.122Z,29.42
2023-02-09T06:33:45.267Z,28.80
2023-02-09T06:36:13.611Z,24.50
2023-02-09T06:38:41.603Z,29.15
2023-02-09T06:41:09.764Z,27.60
2023-02-09T06:43:39.170Z,30.23
2023-02-09T06:46:08.882Z,27.55
2023-02-09T06:48:37.516Z,31.70
2023-02-09T06:51:09.120Z,30.00
2023-02-09T06:53:37.634Z,28.95
2023-02-09T06:56:06.480Z,32.55
2023-02-09T06:58:35.315Z,29.83
2023-02-09T07:01:06.046Z,29.77
2023-02-09T07:03:34.417Z,28.95
2023-02-09T07:06:07.355Z,29.02
2023-02-09T07:08:35.853Z,29.00
2023-02-09T07:11:04.765Z,28.73
2023-02-09T07:13:33.480Z,30.67
2023-02-09T07:16:03.324Z,29.77
2023-02-09T07:18:33.314Z,28.90
2023-02-09T07:21:03.141Z,25.15
2023-02-09T07:23:31.369Z,26.50
2023-02-09T07:26:04.135Z,29.75
2023-02-09T07:28:32.751Z,27.10
2023-02-09T07:31:05.217Z,23.60
2023-02-09T07:33:35.777Z,26.60
2023-02-09T07:36:05.898Z,25.48
2023-02-09T07:38:35.000Z,28.73
2023-02-09T07:41:06.141Z,24.13
2023-02-09T07:43:34.772Z,29.60
2023-02-09T07:46:04.508Z,28.98
2023-02-09T07:48:34.546Z,27.52
2023-02-09T07:51:02.961Z,26.90
2023-02-09T07:53:31.340Z,29.10
2023-02-09T07:55:59.563Z,29.80
2023-02-09T07:58:27.581Z,22.40
2023-02-09T08:00:55.927Z,26.63
2023-02-09T08:03:25.865Z,26.48
2023-02-09T08:05:59.710Z,27.05
2023-02-09T08:08:28.072Z,25.83
2023-02-09T08:10:59.032Z,25.40
2023-02-09T08:13:29.932Z,26.35
2023-02-09T08:16:02.982Z,28.60
2023-02-09T08:18:37.414Z,27.80
2023-02-09T08:21:09.209Z,27.95
2023-02-09T08:23:40.100Z,27.33
2023-02-09T08:26:12.126Z,25.95
2023-02-09T08:28:44.917Z,29.02
2023-02-09T08:31:14.829Z,28.75
2023-02-09T08:33:43.224Z,26.88
2023-02-09T08:36:13.595Z,27.50
2023-02-09T08:38:42.075Z,27.33
2023-02-09T08:41:13.768Z,26.60
2023-02-09T08:43:42.460Z,27.08
2023-02-09T08:46:13.050Z,30.45
2023-02-09T08:48:44.377Z,25.95
2023-02-09T08:51:16.242Z,25.40
2023-02-09T08:53:47.808Z,22.88
2023-02-09T08:56:15.888Z,24.48
2023-02-09T08:58:44.229Z,23.75
2023-02-09T09:01:13.604Z,24.80
2023-02-09T09:03:42.374Z,25.80
2023-02-09T09:06:13.436Z,26.25
2023-02-09T09:08:41.924Z,25.02
2023-02-09T09:11:13.303Z,27.58
2023-02-09T09:13:42.353Z,26.45
2023-02-09T09:16:15.854Z,24.70
2023-02-09T09:18:45.390Z,24.88
2023-02-09T09:21:16.711Z,24.55
2023-02-09T09:23:45.981Z,27.58
2023-02-09T09:26:14.853Z,26.10
2023-02-09T09:28:43.262Z,25.05
2023-02-09T09:31:13.568Z,25.73
2023-02-09T09:33:42.814Z,25.92
2023-02-09T09:36:12.589Z,26.20
2023-02-09T09:38:43.275Z,27.45
2023-02-09T09:41:20.972Z,25.88
2023-02-09T09:43:49.966Z,26.17
2023-02-09T09:46:21.086Z,25.20
2023-02-09T09:48:52.649Z,24.55
2023-02-09T09:51:27.639Z,21.25
2023-02-09T09:54:00.029Z,21.05
2023-02-09T09:56:30.523Z,20.80
2023-02-09T09:58:58.732Z,23.05
2023-02-09T10:01:28.952Z,19.95
2023-02-09T10:03:59.624Z,20.95
2023-02-09T10:06:34.762Z,20.88
2023-02-09T10:09:07.307Z,18.80
2023-02-09T10:11:42.021Z,16.42
2023-02-09T10:14:11.323Z,17.00
2023-02-09T10:16:39.670Z,19.02
2023-02-09T10:19:19.892Z,20.77
2023-02-09T10:21:49.624Z,16.75
2023-02-09T10:24:24.042Z,19.50
2023-02-09T10:27:08.828Z,18.00
2023-02-09T10:29:37.458Z,21.30
2023-02-09T10:32:14.585Z,20.20
2023-02-09T10:34:47.082Z,17.75
2023-02-09T10:37:22.033Z,19.48
2023-02-09T10:40:11.459Z,18.23
2023-02-09T10:42:44.085Z,19.25
2023-02-09T10:45:22.090Z,19.65
2023-02-09T10:47:59.929Z,20.35
2023-02-09T10:50:28.586Z,20.13
2023-02-09T10:53:02.460Z,21.55
2023-02-09T10:55:36.791Z,21.20
2023-02-09T10:58:15.917Z,20.70
2023-02-09T11:00:50.808Z,18.88
2023-02-09T11:03:22.021Z,21.48
2023-02-09T11:05:59.676Z,19.67
2023-02-09T11:08:38.936Z,20.08
2023-02-09T11:11:17.404Z,20.85
2023-02-09T11:13:45.468Z,19.08
2023-02-09T11:16:26.979Z,18.92
2023-02-09T11:19:07.331Z,22.25
2023-02-09T11:21:49.400Z,21.27
2023-02-09T11:24:26.580Z,20.33
2023-02-09T11:27:01.026Z,20.90
2023-02-09T11:29:34.150Z,19.55
2023-02-09T11:32:18.584Z,21.17
2023-02-09T11:35:11.395Z,20.15
2023-02-09T11:37:52.515Z,21.80
2023-02-09T11:40:28.673Z,20.30
2023-02-09T11:43:07.714Z,19.73
2023-02-09T11:45:43.400Z,20.90
2023-02-09T11:48:15.335Z,19.55
2023-02-09T11:50:55.047Z,19.83
2023-02-09T11:53:29.551Z,22.73
2023-02-09T11:56:00.028Z,19.77
2023-02-09T11:58:39.766Z,20.55
2023-02-09T12:01:17.274Z,21.63
2023-02-09T12:03:58.060Z,20.10
2023-02-09T12:06:28.463Z,20.52
2023-02-09T12:09:09.723Z,19.27
2023-02-09T12:11:47.092Z,19.05
2023-02-09T12:14:25.094Z,23.65
2023-02-09T12:17:01.259Z,24.08
2023-02-09T12:19:35.612Z,24.92
2023-02-09T12:22:41.318Z,23.45
2023-02-09T12:25:51.562Z,21.80
2023-02-09T12:28:46.999Z,21.27
2023-02-09T12:31:27.329Z,18.52
2023-02-09T12:34:12.052Z,19.20
2023-02-09T12:37:16.725Z,19.70
2023-02-09T12:40:19.150Z,22.45
2023-02-09T12:43:03.599Z,21.45
2023-02-09T12:45:35.663Z,21.33
2023-02-09T12:48:16.565Z,22.13
2023-02-09T12:50:54.553Z,22.40
2023-02-09T12:53:45.099Z,22.23
2023-02-09T12:56:32.396Z,23.30
2023-02-09T12:59:19.978Z,22.92
2023-02-09T13:02:24.217Z,22.60
2023-02-09T13:05:02.265Z,22.63
2023-02-09T13:07:41.444Z,23.35
2023-02-09T13:10:20.589Z,22.70
2023-02-09T13:12:55.327Z,22.67
2023-02-09T13:15:23.664Z,21.27
2023-02-09T13:18:03.750Z,22.35
2023-02-09T13:21:16.431Z,22.23
2023-02-09T13:23:59.218Z,23.75
2023-02-09T13:26:31.901Z,21.52
2023-02-09T13:29:20.853Z,22.58
2023-02-09T13:32:02.583Z,20.38
2023-02-09T13:34:41.219Z,20.42
2023-02-09T13:37:27.318Z,21.17
2023-02-09T13:40:01.144Z,22.23
2023-02-09T13:42:31.937Z,23.40
2023-02-09T13:45:00.927Z,23.33
2023-02-09T13:47:30.794Z,21.38
2023-02-09T13:50:01.882Z,20.80
2023-02-09T13:52:38.789Z,20.83
2023-02-09T13:55:13.363Z,22.50
2023-02-09T13:57:44.996Z,21.52
2023-02-09T14:00:23.832Z,20.33
2023-02-09T14:02:55.234Z,21.17
2023-02-09T14:05:34.835Z,20.50
2023-02-09T14:08:04.874Z,21.13
2023-02-09T14:10:35.763Z,19.83
2023-02-09T14:13:06.426Z,18.95
2023-02-09T14:15:56.645Z,20.92
2023-02-09T14:18:48.312Z,21.60
2023-02-09T14:21:23.321Z,19.42
2023-02-09T14:24:21.450Z,20.35
2023-02-09T14:26:59.571Z,21.55
2023-02-09T14:29:29.258Z,21.23
2023-02-09T14:32:00.226Z,20.17
2023-02-09T14:34:35.215Z,19.45
2023-02-09T14:37:26.349Z,19.13
2023-02-09T14:39:57.220Z,20.02
2023-02-09T14:42:25.724Z,19.50
2023-02-09T14:44:55.775Z,20.98
2023-02-09T14:47:38.059Z,21.13
2023-02-09T14:50:07.884Z,20.20
2023-02-09T14:52:39.121Z,19.55
2023-02-09T14:55:17.058Z,19.98
2023-02-09T14:57:45.243Z,20.17
2023-02-09T15:00:19.837Z,21.63
2023-02-09T15:02:49.050Z,19.17
2023-02-09T15:05:17.347Z,18.40
2023-02-09T15:07:48.011Z,20.23
2023-02-09T15:10:24.300Z,19.55
2023-02-09T15:12:52.509Z,21.27
2023-02-09T15:15:23.126Z,19.42
2023-02-09T15:17:51.720Z,20.08
2023-02-09T15:20:24.629Z,19.70
2023-02-09T15:22:53.025Z,20.40
2023-02-09T15:25:22.646Z,19.40
2023-02-09T15:27:53.918Z,19.77
2023-02-09T15:30:25.638Z,17.33
2023-02-09T15:32:54.668Z,18.92
2023-02-09T15:35:25.027Z,19.73
2023-02-09T15:37:55.796Z,20.25
2023-02-09T15:40:49.874Z,19.00
2023-02-09T15:43:37.813Z,19.70
2023-02-09T15:46:24.995Z,16.52
2023-02-09T15:48:53.462Z,16.67
2023-02-09T15:51:23.304Z,20.88
2023-02-09T15:53:52.270Z,16.20
2023-02-09T15:56:22.217Z,15.75
2023-02-09T15:58:53.364Z,15.20
2023-02-09T16:01:22.123Z,15.07
2023-02-09T16:03:56.633Z,18.85
2023-02-09T16:06:26.988Z,16.10
2023-02-09T16:08:59.679Z,16.98
2023-02-09T16:11:33.111Z,16.50
2023-02-09T16:14:01.696Z,16.10
2023-02-09T16:16:30.836Z,15.43
2023-02-09T16:18:59.109Z,17.48
2023-02-09T16:21:30.558Z,15.70
2023-02-09T16:24:02.769Z,16.35
2023-02-09T16:26:36.774Z,17.35
2023-02-09T16:29:06.365Z,16.63
2023-02-09T16:31:34.649Z,17.80
2023-02-09T16:34:03.105Z,15.70
2023-02-09T16:36:32.308Z,15.60
2023-02-09T16:39:00.895Z,15.85
2023-02-09T16:41:46.762Z,14.30
2023-02-09T16:44:20.109Z,17.02
2023-02-09T16:46:50.723Z,16.45
2023-02-09T16:49:38.472Z,18.70
2023-02-09T16:52:16.188Z,16.50
2023-02-09T16:54:48.140Z,15.95
2023-02-09T16:57:18.836Z,15.52
2023-02-09T16:59:48.568Z,14.98
2023-02-09T17:02:32.094Z,14.25
2023-02-09T17:05:01.563Z,16.50
2023-02-09T17:07:35.644Z,16.30
2023-02-09T17:10:16.544Z,15.65
2023-02-09T17:12:44.933Z,15.25
2023-02-09T17:15:29.482Z,16.67
2023-02-09T17:18:02.239Z,15.40
2023-02-09T17:20:36.975Z,15.35
2023-02-09T17:23:05.474Z,16.20
2023-02-09T17:25:34.371Z,16.27
2023-02-09T17:28:02.702Z,17.42
2023-02-09T17:30:34.275Z,20.60
2023-02-09T17:33:05.016Z,15.82
2023-02-09T17:36:03.560Z,17.38
2023-02-09T17:38:26.450Z,17.55
2023-02-09T17:40:56.673Z,16.25
2023-02-09T17:43:25.332Z,16.70
2023-02-09T17:45:55.439Z,15.45
2023-02-09T17:48:24.335Z,14.70
2023-02-09T17:50:58.136Z,17.02
2023-02-09T17:53:28.273Z,14.80
2023-02-09T17:55:57.201Z,16.67
2023-02-09T17:58:25.978Z,15.63
2023-02-09T18:00:57.967Z,16.45
2023-02-09T18:03:27.006Z,16.35
2023-02-09T18:05:58.804Z,16.92
2023-02-09T18:08:27.972Z,17.70
2023-02-09T18:10:58.874Z,18.58
2023-02-09T18:13:27.421Z,18.08
2023-02-09T18:15:57.143Z,23.23
2023-02-09T18:18:25.412Z,17.80
2023-02-09T18:20:53.459Z,20.73
2023-02-09T18:23:23.186Z,20.35
2023-02-09T18:25:51.753Z,18.40
2023-02-09T18:28:20.162Z,20.58
2023-02-09T18:30:48.299Z,19.55
2023-02-09T18:33:18.086Z,20.33
2023-02-09T18:35:46.595Z,21.13
2023-02-09T18:38:16.209Z,23.15
2023-02-09T18:40:44.325Z,20.75
2023-02-09T18:43:15.658Z,20.80
2023-02-09T18:45:44.103Z,23.60
2023-02-09T18:48:12.667Z,19.90
2023-02-09T18:50:42.247Z,19.30
2023-02-09T18:53:12.761Z,19.00
2023-02-09T18:55:40.966Z,18.02
2023-02-09T18:58:10.326Z,22.05
2023-02-09T19:00:38.551Z,19.25
2023-02-09T19:03:06.715Z,21.50
2023-02-09T19:05:34.907Z,22.13
2023-02-09T19:08:04.743Z,21.80
2023-02-09T19:10:37.307Z,19.10
2023-02-09T19:13:10.267Z,22.70
2023-02-09T19:15:43.512Z,23.20
2023-02-09T19:18:17.260Z,22.05
2023-02-09T19:20:53.419Z,23.63
2023-02-09T19:23:28.598Z,23.33
2023-02-09T19:26:07.592Z,21.40
2023-02-09T19:28:43.037Z,17.95
2023-02-09T19:31:16.306Z,18.80
2023-02-09T19:33:50.826Z,20.15
2023-02-09T19:36:23.521Z,19.10
2023-02-09T19:38:57.754Z,22.60
2023-02-09T19:41:30.436Z,23.13
2023-02-09T19:44:02.979Z,23.35
2023-02-09T19:47:13.371Z,23.23
2023-02-09T19:49:46.350Z,22.65
2023-02-09T19:52:19.483Z,22.70
2023-02-09T19:54:54.255Z,18.45
2023-02-09T19:57:26.841Z,19.45
2023-02-09T19:59:58.769Z,22.70
2023-02-09T20:02:30.893Z,20.33
2023-02-09T20:05:02.640Z,19.98
2023-02-09T20:07:35.218Z,19.27
2023-02-09T20:10:09.361Z,20.38
2023-02-09T20:15:16.129Z,19.52
2023-02-09T20:20:17.910Z,20.42
2023-02-09T20:22:49.936Z,20.75
2023-02-09T20:25:21.708Z,20.23
2023-02-09T20:27:57.627Z,20.90
2023-02-09T20:30:31.471Z,21.90
2023-02-09T20:33:03.215Z,21.83
2023-02-09T20:35:36.505Z,20.02
2023-02-09T20:38:13.123Z,19.95
2023-02-09T20:40:49.852Z,19.65
2023-02-09T20:43:37.998Z,21.85
2023-02-09T20:46:35.528Z,22.08
2023-02-09T20:49:10.412Z,22.15
2023-02-09T20:51:44.113Z,21.35
2023-02-09T20:54:48.189Z,23.67
2023-02-09T20:57:19.349Z,22.83
2023-02-09T20:59:49.454Z,23.40
2023-02-09T21:02:23.326Z,21.08
2023-02-09T21:05:05.697Z,21.55
2023-02-09T21:07:52.242Z,23.15
2023-02-09T21:10:21.363Z,23.27
2023-02-09T21:12:52.943Z,21.42
2023-02-09T21:15:25.390Z,23.83
2023-02-09T21:17:54.487Z,20.92
2023-02-09T21:20:23.890Z,22.25
2023-02-09T21:22:53.640Z,21.27
2023-02-09T21:25:22.976Z,21.63
2023-02-09T21:27:55.984Z,21.17
2023-02-09T21:30:25.116Z,22.75
2023-02-09T21:32:54.700Z,25.52
2023-02-09T21:35:24.128Z,23.45
2023-02-09T21:37:53.377Z,22.95
2023-02-09T21:40:23.366Z,23.42
2023-02-09T21:42:58.720Z,24.30
2023-02-09T21:45:27.848Z,22.27
2023-02-09T21:47:57.101Z,23.08
2023-02-09T21:50:26.476Z,22.98
2023-02-09T21:52:55.859Z,21.60
2023-02-09T21:55:24.430Z,21.92
2023-02-09T21:57:53.037Z,22.33
2023-02-09T22:00:22.935Z,23.83
2023-02-09T22:02:54.223Z,25.17
2023-02-09T22:05:24.186Z,26.05
2023-02-09T22:07:53.310Z,24.00
2023-02-09T22:10:22.368Z,23.92
2023-02-09T22:12:51.206Z,22.05
2023-02-09T22:15:19.654Z,21.98
2023-02-09T22:17:50.882Z,24.80
2023-02-09T22:20:20.000Z,22.17
2023-02-09T22:22:49.747Z,25.15
2023-02-09T22:25:18.022Z,24.42
2023-02-09T22:27:46.963Z,26.33
2023-02-09T22:30:15.268Z,24.17
2023-02-09T22:32:43.916Z,25.63
2023-02-09T22:35:14.297Z,24.13
2023-02-09T22:37:42.588Z,25.95
2023-02-09T22:40:12.012Z,25.15
2023-02-09T22:42:40.928Z,24.67
2023-02-09T22:45:10.170Z,24.42
2023-02-09T22:47:39.633Z,25.83
2023-02-09T22:50:08.904Z,26.15
2023-02-09T22:52:38.340Z,26.17
2023-02-09T22:55:07.475Z,23.90
2023-02-09T22:57:35.513Z,25.13
2023-02-09T23:00:07.728Z,24.58
2023-02-09T23:02:35.823Z,26.98
2023-02-09T23:05:04.702Z,26.00
2023-02-09T23:07:33.034Z,23.98
2023-02-09T23:10:02.609Z,25.25
2023-02-09T23:12:30.721Z,26.42
2023-02-09T23:14:58.913Z,25.83
2023-02-09T23:17:27.170Z,24.88
2023-02-09T23:19:55.251Z,26.77
2023-02-09T23:22:23.473Z,23.30
2023-02-09T23:24:51.576Z,22.35
2023-02-09T23:27:21.080Z,24.88
2023-02-09T23:29:49.385Z,23.77
2023-02-09T23:32:17.657Z,24.98
2023-02-09T23:34:45.821Z,23.10
2023-02-09T23:37:19.168Z,25.40
2023-02-09T23:39:56.889Z,24.38
2023-02-09T23:42:26.555Z,23.70
2023-02-09T23:44:54.736Z,25.20
2023-02-09T23:47:22.893Z,23.35
2023-02-09T23:49:51.224Z,23.85
2023-02-09T23:52:19.495Z,25.30
2023-02-09T23:54:47.552Z,25.00
2023-02-09T23:57:15.640Z,24.25
2023-02-09T23:59:45.217Z,23.48
